createdAt,value
2022-10-16T00:01:31.735Z,10.65
2022-10-16T00:04:01.003Z,9.75
2022-10-16T00:06:29.392Z,9.85
2022-10-16T00:08:57.071Z,10.18
2022-10-16T00:11:34.613Z,9.90
2022-10-16T00:14:03.502Z,9.90
2022-10-16T00:16:30.480Z,10.45
2022-10-16T00:18:58.314Z,9.77
2022-10-16T00:21:28.170Z,8.70
2022-10-16T00:24:01.005Z,8.48
2022-10-16T00:26:29.307Z,9.57
2022-10-16T00:28:56.997Z,9.10
2022-10-16T00:31:24.581Z,9.70
2022-10-16T00:33:52.549Z,10.00
2022-10-16T00:36:23.048Z,10.40
2022-10-16T00:38:55.814Z,9.23
2022-10-16T00:41:25.030Z,9.45
2022-10-16T00:43:52.046Z,8.93
2022-10-16T00:46:22.810Z,8.82
2022-10-16T00:48:56.665Z,8.82
2022-10-16T00:51:31.472Z,8.73
2022-10-16T00:53:59.157Z,9.38
2022-10-16T00:56:26.167Z,9.60
2022-10-16T00:58:53.454Z,9.55
2022-10-16T01:01:20.458Z,9.77
2022-10-16T01:03:47.804Z,9.20
2022-10-16T01:09:18.034Z,10.73
2022-10-16T01:12:00.603Z,8.80
2022-10-16T01:14:53.642Z,9.30
2022-10-16T01:17:32.589Z,8.35
2022-10-16T01:20:25.140Z,9.57
2022-10-16T01:23:26.132Z,8.55
2022-10-16T01:26:28.477Z,9.18
2022-10-16T01:29:09.958Z,9.27
2022-10-16T01:31:41.781Z,9.07
2022-10-16T01:34:18.142Z,8.95
2022-10-16T01:36:54.361Z,9.55
2022-10-16T01:39:25.530Z,8.95
2022-10-16T01:41:59.562Z,9.63
2022-10-16T01:44:34.775Z,8.45
2022-10-16T01:47:02.409Z,8.27
2022-10-16T01:49:34.867Z,9.18
2022-10-16T01:52:08.079Z,8.50
2022-10-16T01:54:37.404Z,10.27
2022-10-16T01:57:08.467Z,9.25
2022-10-16T01:59:40.587Z,8.52
2022-10-16T02:02:11.420Z,9.63
2022-10-16T02:04:48.498Z,8.60
2022-10-16T02:07:16.462Z,9.20
2022-10-16T02:09:43.521Z,8.18
2022-10-16T02:12:20.531Z,8.65
2022-10-16T02:14:47.409Z,8.75
2022-10-16T02:17:17.047Z,8.43
2022-10-16T02:19:45.983Z,8.38
2022-10-16T02:22:37.256Z,9.43
2022-10-16T02:25:10.736Z,8.20
2022-10-16T02:28:05.023Z,7.65
2022-10-16T02:30:37.575Z,7.47
2022-10-16T02:33:08.313Z,8.00
2022-10-16T02:35:36.736Z,9.10
2022-10-16T02:38:04.888Z,7.75
2022-10-16T02:40:32.064Z,8.13
2022-10-16T02:42:59.111Z,8.25
2022-10-16T02:45:26.535Z,7.68
2022-10-16T02:47:53.713Z,7.65
2022-10-16T02:50:20.656Z,7.70
2022-10-16T02:52:47.874Z,7.85
2022-10-16T02:55:15.104Z,7.93
2022-10-16T02:57:42.224Z,7.20
2022-10-16T03:00:11.017Z,6.70
2022-10-16T03:02:38.455Z,7.47
2022-10-16T03:05:05.807Z,7.22
2022-10-16T03:07:32.929Z,7.68
2022-10-16T03:10:01.236Z,7.30
2022-10-16T03:12:29.805Z,7.13
2022-10-16T03:14:57.857Z,6.45
2022-10-16T03:17:26.632Z,6.25
2022-10-16T03:19:53.719Z,6.82
2022-10-16T03:22:20.811Z,6.15
2022-10-16T03:24:47.704Z,6.05
2022-10-16T03:27:14.769Z,6.30
2022-10-16T03:29:41.819Z,6.13
2022-10-16T03:32:09.025Z,6.00
2022-10-16T03:34:35.923Z,6.47
2022-10-16T03:37:03.244Z,5.82
2022-10-16T03:39:30.155Z,5.68
2022-10-16T03:41:57.204Z,5.38
2022-10-16T03:44:24.155Z,6.07
2022-10-16T03:46:51.235Z,5.68
2022-10-16T03:49:18.057Z,5.53
2022-10-16T03:51:45.314Z,5.40
2022-10-16T03:54:12.285Z,5.57
2022-10-16T03:56:39.693Z,5.20
2022-10-16T03:59:06.603Z,5.72
2022-10-16T04:01:34.020Z,5.80
2022-10-16T04:04:00.840Z,5.28
2022-10-16T04:06:28.015Z,5.57
2022-10-16T04:08:54.955Z,5.35
2022-10-16T04:11:22.250Z,5.90
2022-10-16T04:13:49.631Z,5.32
2022-10-16T04:16:17.919Z,5.25
2022-10-16T04:18:44.903Z,5.30
2022-10-16T04:21:12.038Z,5.28
2022-10-16T04:23:39.008Z,6.32
2022-10-16T04:26:06.203Z,4.95
2022-10-16T04:28:33.206Z,5.35
2022-10-16T04:31:00.501Z,5.20
2022-10-16T04:33:27.359Z,5.70
2022-10-16T04:36:01.965Z,5.60
2022-10-16T04:38:29.577Z,6.13
2022-10-16T04:40:56.705Z,5.78
2022-10-16T04:43:23.705Z,5.28
2022-10-16T04:45:55.702Z,5.50
2022-10-16T04:48:22.855Z,5.70
2022-10-16T04:50:53.063Z,5.75
2022-10-16T04:53:22.609Z,5.87
2022-10-16T04:55:49.942Z,6.35
2022-10-16T04:58:16.886Z,5.78
2022-10-16T05:00:44.900Z,6.13
2022-10-16T05:03:11.863Z,6.40
2022-10-16T05:05:44.503Z,6.32
2022-10-16T05:08:12.912Z,6.13
2022-10-16T05:10:40.372Z,7.13
2022-10-16T05:13:07.244Z,6.90
2022-10-16T05:15:34.682Z,6.07
2022-10-16T05:18:01.772Z,5.97
2022-10-16T05:20:28.971Z,6.45
2022-10-16T05:22:56.130Z,6.95
2022-10-16T05:25:23.254Z,6.65
2022-10-16T05:27:50.593Z,6.85
2022-10-16T05:30:18.908Z,6.55
2022-10-16T05:32:52.349Z,7.07
2022-10-16T05:35:20.589Z,7.40
2022-10-16T05:37:48.247Z,6.75
2022-10-16T05:40:15.991Z,7.07
2022-10-16T05:42:42.888Z,7.90
2022-10-16T05:45:12.120Z,7.90
2022-10-16T05:47:39.619Z,7.18
2022-10-16T05:50:07.365Z,7.57
2022-10-16T05:52:34.252Z,7.55
2022-10-16T05:55:01.436Z,7.88
2022-10-16T05:57:28.590Z,6.97
2022-10-16T05:59:56.358Z,7.10
2022-10-16T06:02:23.214Z,7.88
2022-10-16T06:04:50.318Z,7.45
2022-10-16T06:07:17.194Z,6.68
2022-10-16T06:09:44.400Z,6.45
2022-10-16T06:12:11.394Z,7.82
2022-10-16T06:14:38.648Z,7.03
2022-10-16T06:17:05.580Z,6.97
2022-10-16T06:19:32.825Z,7.10
2022-10-16T06:21:59.889Z,6.18
2022-10-16T06:24:27.094Z,6.30
2022-10-16T06:26:54.061Z,6.63
2022-10-16T06:29:21.302Z,7.57
2022-10-16T06:31:48.226Z,7.38
2022-10-16T06:34:15.542Z,6.85
2022-10-16T06:36:42.688Z,7.50
2022-10-16T06:39:09.987Z,7.97
2022-10-16T06:41:37.265Z,8.65
2022-10-16T06:44:07.361Z,7.82
2022-10-16T06:46:34.684Z,7.63
2022-10-16T06:49:02.061Z,7.72
2022-10-16T06:51:28.989Z,7.57
2022-10-16T06:54:04.370Z,8.30
2022-10-16T06:56:33.280Z,8.15
2022-10-16T06:59:00.783Z,8.25
2022-10-16T07:01:27.704Z,8.73
2022-10-16T07:03:54.834Z,8.20
2022-10-16T07:06:23.844Z,9.52
2022-10-16T07:08:51.660Z,8.35
2022-10-16T07:11:22.535Z,9.70
2022-10-16T07:13:54.663Z,7.95
2022-10-16T07:16:28.331Z,9.20
2022-10-16T07:19:00.726Z,9.90
2022-10-16T07:21:36.454Z,9.73
2022-10-16T07:24:06.085Z,9.73
2022-10-16T07:26:35.982Z,10.35
2022-10-16T07:29:04.638Z,9.60
2022-10-16T07:31:31.968Z,10.98
2022-10-16T07:34:00.921Z,10.20
2022-10-16T07:36:28.067Z,10.10
2022-10-16T07:38:58.671Z,9.88
2022-10-16T07:41:28.576Z,9.75
2022-10-16T07:43:58.417Z,9.88
2022-10-16T07:46:25.440Z,10.82
2022-10-16T07:48:52.934Z,11.32
2022-10-16T07:51:22.153Z,10.00
2022-10-16T07:53:49.887Z,10.93
2022-10-16T07:56:18.101Z,11.90
2022-10-16T07:58:45.872Z,10.13
2022-10-16T08:01:15.306Z,10.85
2022-10-16T08:03:44.485Z,9.85
2022-10-16T08:06:11.483Z,10.40
2022-10-16T08:08:38.936Z,10.38
2022-10-16T08:11:06.086Z,11.43
2022-10-16T08:13:33.799Z,9.77
2022-10-16T08:16:00.847Z,9.30
2022-10-16T08:18:28.007Z,10.40
2022-10-16T08:20:59.718Z,10.10
2022-10-16T08:23:27.706Z,9.40
2022-10-16T08:26:04.035Z,8.93
2022-10-16T08:28:31.482Z,8.55
2022-10-16T08:31:09.834Z,7.03
2022-10-16T08:33:38.040Z,7.72
2022-10-16T08:36:06.582Z,6.72
2022-10-16T08:38:35.009Z,8.00
2022-10-16T08:41:35.836Z,7.28
2022-10-16T08:44:33.510Z,6.53
2022-10-16T08:47:20.167Z,5.78
2022-10-16T08:50:03.486Z,6.35
2022-10-16T08:54:59.210Z,5.93
2022-10-16T08:57:29.836Z,6.80
2022-10-16T09:00:01.495Z,6.65
2022-10-16T09:02:46.108Z,6.40
2022-10-16T09:05:42.211Z,6.25
2022-10-16T09:08:28.309Z,5.38
2022-10-16T09:11:33.034Z,6.60
2022-10-16T09:14:24.123Z,5.55
2022-10-16T09:17:01.798Z,5.10
2022-10-16T09:19:37.164Z,5.90
2022-10-16T09:22:15.511Z,5.32
2022-10-16T09:24:42.991Z,5.53
2022-10-16T09:27:14.696Z,5.45
2022-10-16T09:29:41.752Z,5.28
2022-10-16T09:32:16.726Z,4.85
2022-10-16T09:34:48.465Z,5.60
2022-10-16T09:37:19.770Z,5.22
2022-10-16T09:39:54.892Z,4.93
2022-10-16T09:42:42.667Z,5.10
2022-10-16T09:45:23.854Z,5.32
2022-10-16T09:47:54.049Z,5.72
2022-10-16T09:50:27.531Z,5.93
2022-10-16T09:53:05.943Z,5.40
2022-10-16T09:55:32.915Z,6.03
2022-10-16T09:58:00.296Z,5.40
2022-10-16T10:00:27.556Z,5.25
2022-10-16T10:02:56.256Z,5.45
2022-10-16T10:05:26.568Z,5.60
2022-10-16T10:08:07.179Z,6.28
2022-10-16T10:10:40.811Z,5.63
2022-10-16T10:13:20.508Z,5.47
2022-10-16T10:15:47.685Z,5.65
2022-10-16T10:18:20.624Z,5.90
2022-10-16T10:20:57.722Z,5.75
2022-10-16T10:23:27.503Z,5.03
2022-10-16T10:26:08.236Z,5.50
2022-10-16T10:28:57.269Z,5.40
2022-10-16T10:31:33.044Z,5.25
2022-10-16T10:34:00.771Z,4.68
2022-10-16T10:36:35.175Z,5.32
2022-10-16T10:39:37.478Z,4.22
2022-10-16T10:42:24.473Z,4.55
2022-10-16T10:45:27.163Z,5.93
2022-10-16T10:48:15.670Z,4.50
2022-10-16T10:51:05.588Z,4.93
2022-10-16T10:53:43.444Z,5.53
2022-10-16T10:56:58.138Z,5.20
2022-10-16T10:59:51.994Z,5.13
2022-10-16T11:02:30.422Z,5.15
2022-10-16T11:05:31.161Z,4.53
2022-10-16T11:08:09.140Z,4.50
2022-10-16T11:10:47.925Z,5.07
2022-10-16T11:13:38.957Z,4.88
2022-10-16T11:16:29.147Z,4.68
2022-10-16T11:19:21.512Z,4.93
2022-10-16T11:22:00.671Z,5.60
2022-10-16T11:24:42.658Z,4.97
2022-10-16T11:27:15.585Z,4.90
2022-10-16T11:29:59.386Z,4.63
2022-10-16T11:32:51.292Z,4.60
2022-10-16T11:35:34.824Z,4.37
2022-10-16T11:40:36.384Z,4.40
2022-10-16T11:43:16.147Z,5.03
2022-10-16T11:45:55.274Z,4.45
2022-10-16T11:48:49.912Z,3.92
2022-10-16T11:51:38.265Z,4.20
2022-10-16T11:54:37.495Z,4.55
2022-10-16T11:57:15.301Z,4.38
2022-10-16T12:00:00.548Z,4.20
2022-10-16T12:02:53.326Z,4.22
2022-10-16T12:05:24.908Z,3.83
2022-10-16T12:08:13.850Z,4.28
2022-10-16T12:10:43.659Z,4.55
2022-10-16T12:13:32.544Z,3.95
2022-10-16T12:16:22.997Z,4.20
2022-10-16T12:19:03.409Z,5.15
2022-10-16T12:21:33.334Z,4.00
2022-10-16T12:24:07.522Z,4.60
2022-10-16T12:26:40.154Z,3.97
2022-10-16T12:29:16.165Z,4.22
2022-10-16T12:31:54.858Z,4.93
2022-10-16T12:34:43.282Z,4.27
2022-10-16T12:37:23.777Z,3.88
2022-10-16T12:39:52.703Z,3.83
2022-10-16T12:42:29.170Z,4.35
2022-10-16T12:44:57.344Z,4.65
2022-10-16T12:47:31.739Z,4.28
2022-10-16T12:49:59.736Z,4.05
2022-10-16T12:52:32.305Z,4.15
2022-10-16T12:55:01.763Z,3.97
2022-10-16T12:57:41.820Z,4.00
2022-10-16T13:00:37.295Z,3.85
2022-10-16T13:03:12.739Z,4.65
2022-10-16T13:05:49.183Z,3.83
2022-10-16T13:08:48.346Z,4.72
2022-10-16T13:11:54.259Z,4.28
2022-10-16T13:14:39.656Z,4.00
2022-10-16T13:17:16.740Z,4.53
2022-10-16T13:20:25.730Z,4.68
2022-10-16T13:23:07.351Z,3.45
2022-10-16T13:25:57.653Z,3.78
2022-10-16T13:28:31.437Z,3.25
2022-10-16T13:31:00.348Z,3.92
2022-10-16T13:33:35.331Z,3.58
2022-10-16T13:36:02.772Z,3.95
2022-10-16T13:38:35.585Z,3.80
2022-10-16T13:41:05.801Z,3.90
2022-10-16T13:43:42.013Z,4.20
2022-10-16T13:46:16.017Z,3.60
2022-10-16T13:48:43.773Z,4.75
2022-10-16T13:51:19.038Z,4.15
2022-10-16T13:53:47.071Z,4.25
2022-10-16T13:56:19.741Z,4.10
2022-10-16T14:01:28.660Z,4.03
2022-10-16T14:04:07.762Z,4.13
2022-10-16T14:06:36.594Z,4.68
2022-10-16T14:09:28.107Z,3.13
2022-10-16T14:12:01.932Z,3.53
2022-10-16T14:14:41.231Z,3.92
2022-10-16T14:17:15.342Z,4.50
2022-10-16T14:19:50.438Z,3.80
2022-10-16T14:22:32.106Z,3.58
2022-10-16T14:24:59.638Z,3.85
2022-10-16T14:27:35.031Z,4.55
2022-10-16T14:30:15.702Z,4.28
2022-10-16T14:32:53.523Z,4.28
2022-10-16T14:35:27.715Z,4.22
2022-10-16T14:37:56.432Z,4.00
2022-10-16T14:40:27.755Z,289.90
2022-10-16T14:42:55.140Z,358.30
2022-10-16T14:45:27.141Z,537.42
2022-10-16T14:48:01.250Z,523.15
2022-10-16T14:50:28.697Z,211.38
2022-10-16T14:52:56.051Z,35.72
2022-10-16T14:57:51.311Z,28.48
2022-10-16T15:00:22.524Z,21.02
2022-10-16T15:02:51.062Z,14.85
2022-10-16T15:05:23.045Z,16.88
2022-10-16T15:07:51.116Z,8.18
2022-10-16T15:10:19.916Z,22.88
2022-10-16T15:12:47.482Z,37.25
2022-10-16T15:15:41.422Z,76.30
2022-10-16T15:18:08.443Z,37.08
2022-10-16T15:20:38.015Z,88.47
2022-10-16T15:25:58.961Z,33.75
2022-10-16T15:28:26.909Z,22.98
2022-10-16T15:30:56.498Z,10.95
2022-10-16T15:33:28.043Z,9.52
2022-10-16T15:35:55.817Z,10.52
2022-10-16T15:38:23.609Z,8.50
2022-10-16T15:40:51.596Z,7.13
2022-10-16T15:43:19.762Z,6.40
2022-10-16T15:46:07.327Z,6.82
2022-10-16T15:48:34.957Z,221.75
2022-10-16T15:51:06.412Z,127.47
2022-10-16T15:53:34.220Z,74.50
2022-10-16T15:56:06.101Z,66.47
2022-10-16T15:58:33.317Z,94.28
2022-10-16T16:01:02.609Z,53.35
2022-10-16T16:03:30.548Z,21.02
2022-10-16T16:05:59.070Z,25.88
2022-10-16T16:08:26.018Z,31.85
2022-10-16T16:11:26.515Z,30.67
2022-10-16T16:13:53.425Z,15.50
2022-10-16T16:16:21.207Z,9.02
2022-10-16T16:18:50.316Z,12.30
2022-10-16T16:21:18.341Z,11.15
2022-10-16T16:23:45.216Z,20.05
2022-10-16T16:26:26.969Z,25.65
2022-10-16T16:28:55.515Z,31.05
2022-10-16T16:31:26.114Z,38.00
2022-10-16T16:33:53.557Z,29.90
2022-10-16T16:36:21.051Z,21.70
2022-10-16T16:38:48.230Z,18.40
2022-10-16T16:41:18.141Z,13.25
2022-10-16T16:43:45.614Z,17.45
2022-10-16T16:46:13.122Z,10.07
2022-10-16T16:48:40.364Z,8.43
2022-10-16T16:51:10.690Z,14.05
2022-10-16T16:53:37.862Z,114.85
2022-10-16T16:56:06.750Z,69.75
2022-10-16T16:58:33.952Z,93.10
2022-10-16T17:01:19.384Z,45.00
2022-10-16T17:03:50.530Z,70.20
2022-10-16T17:06:21.463Z,42.15
2022-10-16T17:08:49.550Z,38.00
2022-10-16T17:11:22.422Z,22.73
2022-10-16T17:13:52.631Z,15.73
2022-10-16T17:16:24.708Z,15.05
2022-10-16T17:18:52.525Z,8.07
2022-10-16T17:21:20.194Z,8.73
2022-10-16T17:23:47.080Z,7.68
2022-10-16T17:26:17.388Z,9.80
2022-10-16T17:28:44.911Z,10.05
2022-10-16T17:31:17.511Z,8.13
2022-10-16T17:33:45.055Z,8.02
2022-10-16T17:36:14.648Z,8.60
2022-10-16T17:38:42.837Z,8.23
2022-10-16T17:41:23.211Z,8.07
2022-10-16T17:43:51.670Z,10.05
2022-10-16T17:46:21.829Z,9.57
2022-10-16T17:48:52.070Z,10.82
2022-10-16T17:51:25.571Z,10.32
2022-10-16T17:56:21.475Z,8.88
2022-10-16T17:58:51.768Z,9.32
2022-10-16T18:01:25.000Z,10.52
2022-10-16T18:03:55.742Z,9.85
2022-10-16T18:06:23.427Z,9.20
2022-10-16T18:08:51.765Z,9.10
2022-10-16T18:11:20.382Z,10.80
2022-10-16T18:13:47.856Z,10.07
2022-10-16T18:16:16.073Z,10.20
2022-10-16T18:18:47.906Z,9.02
2022-10-16T18:21:17.117Z,9.33
2022-10-16T18:23:50.694Z,9.32
2022-10-16T18:26:21.198Z,9.82
2022-10-16T18:28:48.546Z,10.25
2022-10-16T18:31:17.651Z,9.48
2022-10-16T18:33:48.693Z,9.43
2022-10-16T18:36:18.320Z,8.93
2022-10-16T18:38:45.690Z,10.00
2022-10-16T18:41:14.283Z,9.13
2022-10-16T18:43:41.248Z,9.32
2022-10-16T18:46:11.762Z,9.65
2022-10-16T18:48:40.375Z,10.43
2022-10-16T18:51:10.546Z,9.73
2022-10-16T18:53:39.317Z,8.73
2022-10-16T18:56:07.446Z,8.68
2022-10-16T18:58:38.371Z,9.93
2022-10-16T19:01:07.716Z,9.90
2022-10-16T19:03:35.117Z,9.18
2022-10-16T19:06:04.244Z,9.90
2022-10-16T19:08:33.947Z,9.52
2022-10-16T19:11:08.849Z,9.75
2022-10-16T19:13:36.123Z,8.60
2022-10-16T19:16:19.251Z,9.50
2022-10-16T19:18:48.058Z,9.52
2022-10-16T19:21:17.296Z,9.57
2022-10-16T19:23:44.588Z,10.50
2022-10-16T19:26:16.285Z,8.90
2022-10-16T19:28:44.367Z,9.02
2022-10-16T19:31:17.490Z,10.27
2022-10-16T19:33:44.765Z,8.45
2022-10-16T19:36:20.879Z,9.90
2022-10-16T19:38:47.800Z,8.45
2022-10-16T19:41:16.776Z,9.95
2022-10-16T19:43:44.380Z,9.02
2022-10-16T19:46:20.589Z,8.70
2022-10-16T19:48:48.545Z,9.15
2022-10-16T19:51:18.174Z,9.25
2022-10-16T19:53:46.374Z,8.75
2022-10-16T19:56:16.195Z,9.00
2022-10-16T19:58:44.323Z,9.38
2022-10-16T20:01:12.895Z,9.30
2022-10-16T20:03:40.447Z,8.52
2022-10-16T20:06:08.943Z,9.57
2022-10-16T20:08:41.075Z,9.85
2022-10-16T20:11:22.568Z,8.70
2022-10-16T20:13:50.374Z,9.27
2022-10-16T20:16:19.255Z,9.75
2022-10-16T20:18:48.065Z,8.73
2022-10-16T20:21:28.124Z,10.25
2022-10-16T20:23:55.425Z,9.43
2022-10-16T20:26:25.824Z,10.95
2022-10-16T20:28:54.464Z,9.65
2022-10-16T20:31:27.384Z,9.20
2022-10-16T20:33:55.947Z,10.90
2022-10-16T20:36:25.261Z,10.80
2022-10-16T20:38:53.104Z,10.82
2022-10-16T20:41:20.931Z,9.75
2022-10-16T20:43:50.069Z,9.95
2022-10-16T20:46:23.515Z,10.13
2022-10-16T20:48:52.700Z,9.73
2022-10-16T20:51:31.110Z,10.88
2022-10-16T20:53:59.903Z,10.02
2022-10-16T20:56:30.229Z,10.52
2022-10-16T20:58:57.883Z,10.10
2022-10-16T21:01:27.296Z,9.35
2022-10-16T21:03:59.562Z,10.57
2022-10-16T21:06:26.947Z,10.77
2022-10-16T21:08:54.189Z,9.80
2022-10-16T21:11:29.059Z,10.07
2022-10-16T21:13:58.708Z,10.18
2022-10-16T21:16:26.807Z,9.57
2022-10-16T21:18:54.322Z,9.27
2022-10-16T21:21:26.861Z,9.75
2022-10-16T21:23:54.701Z,10.07
2022-10-16T21:26:28.441Z,10.18
2022-10-16T21:29:03.785Z,11.07
2022-10-16T21:31:31.844Z,9.73
2022-10-16T21:33:59.644Z,12.23
2022-10-16T21:36:32.983Z,11.02
2022-10-16T21:39:11.798Z,11.38
2022-10-16T21:41:39.921Z,9.98
2022-10-16T21:44:08.018Z,10.40
2022-10-16T21:46:37.367Z,11.48
2022-10-16T21:49:06.080Z,11.80
2022-10-16T21:51:40.239Z,11.23
2022-10-16T21:54:09.789Z,11.35
2022-10-16T21:56:37.295Z,11.73
2022-10-16T21:59:06.008Z,11.27
2022-10-16T22:01:33.532Z,11.40
2022-10-16T22:04:00.651Z,11.98
2022-10-16T22:06:28.683Z,12.45
2022-10-16T22:08:59.907Z,12.98
2022-10-16T22:11:31.301Z,11.70
2022-10-16T22:13:58.216Z,11.82
2022-10-16T22:16:26.626Z,11.55
2022-10-16T22:18:55.188Z,11.57
2022-10-16T22:21:23.172Z,11.68
2022-10-16T22:23:50.329Z,11.82
2022-10-16T22:26:17.564Z,11.77
2022-10-16T22:28:44.585Z,11.50
2022-10-16T22:31:13.584Z,12.73
2022-10-16T22:33:40.936Z,11.95
2022-10-16T22:36:12.465Z,10.18
2022-10-16T22:38:39.749Z,11.65
2022-10-16T22:41:09.800Z,12.35
2022-10-16T22:43:40.055Z,11.38
2022-10-16T22:46:09.908Z,10.45
2022-10-16T22:48:37.476Z,12.73
2022-10-16T22:51:06.176Z,11.45
2022-10-16T22:53:34.210Z,10.70
2022-10-16T22:56:01.521Z,11.07
2022-10-16T22:58:28.530Z,11.07
2022-10-16T23:00:55.941Z,12.00
2022-10-16T23:03:23.082Z,11.77
2022-10-16T23:05:50.298Z,11.63
2022-10-16T23:08:17.614Z,10.73
2022-10-16T23:10:46.831Z,10.63
2022-10-16T23:13:14.341Z,9.50
2022-10-16T23:15:43.075Z,10.15
2022-10-16T23:18:10.353Z,11.23
2022-10-16T23:20:41.757Z,11.52
2022-10-16T23:23:09.821Z,12.27
2022-10-16T23:25:37.653Z,11.27
2022-10-16T23:28:04.873Z,11.07
2022-10-16T23:30:32.043Z,12.10
2022-10-16T23:32:58.895Z,11.73
2022-10-16T23:35:26.053Z,11.32
2022-10-16T23:37:53.079Z,12.23
2022-10-16T23:40:20.211Z,10.85
2022-10-16T23:42:47.071Z,13.43
2022-10-16T23:45:14.201Z,11.60
2022-10-16T23:47:41.615Z,13.00
2022-10-16T23:50:10.051Z,10.80
2022-10-16T23:52:37.187Z,11.68
2022-10-16T23:55:05.553Z,12.27
2022-10-16T23:57:32.443Z,11.57
2022-10-16T23:59:59.792Z,11.23
